createdAt,value
2023-05-04T00:02:03.542Z,9.12
2023-05-04T00:04:30.152Z,9.15
2023-05-04T00:06:56.681Z,9.09
2023-05-04T00:09:23.226Z,9.07
2023-05-04T00:11:49.786Z,9.02
2023-05-04T00:14:16.384Z,9.00
2023-05-04T00:16:44.145Z,8.96
2023-05-04T00:19:10.991Z,8.98
2023-05-04T00:21:37.498Z,8.90
2023-05-04T00:24:04.254Z,8.88
2023-05-04T00:26:30.822Z,8.88
2023-05-04T00:28:57.419Z,8.86
2023-05-04T00:31:24.003Z,8.85
2023-05-04T00:33:50.621Z,8.83
2023-05-04T00:36:17.407Z,8.75
2023-05-04T00:38:51.362Z,8.76
2023-05-04T00:41:18.907Z,8.72
2023-05-04T00:43:45.766Z,8.68
2023-05-04T00:46:13.596Z,8.68
2023-05-04T00:48:45.234Z,8.62
2023-05-04T00:51:13.317Z,8.61
2023-05-04T00:53:40.148Z,8.59
2023-05-04T00:56:07.101Z,8.58
2023-05-04T00:58:34.190Z,8.59
2023-05-04T01:01:01.525Z,8.56
2023-05-04T01:03:28.681Z,8.50
2023-05-04T01:06:13.277Z,8.48
2023-05-04T01:08:43.590Z,8.43
2023-05-04T01:11:13.517Z,8.42
2023-05-04T01:13:40.223Z,8.39
2023-05-04T01:16:06.947Z,8.36
2023-05-04T01:18:33.470Z,8.34
2023-05-04T01:21:00.038Z,8.30
2023-05-04T01:23:27.417Z,8.26
2023-05-04T01:26:15.752Z,8.26
2023-05-04T01:28:47.618Z,8.22
2023-05-04T01:31:17.007Z,8.22
2023-05-04T01:33:44.778Z,8.17
2023-05-04T01:36:11.569Z,8.17
2023-05-04T01:38:38.085Z,8.13
2023-05-04T01:41:04.749Z,8.10
2023-05-04T01:43:31.283Z,8.06
2023-05-04T01:45:57.854Z,8.04
2023-05-04T01:48:24.398Z,8.00
2023-05-04T01:50:50.877Z,7.99
2023-05-04T01:53:17.394Z,7.94
2023-05-04T01:55:43.892Z,7.92
2023-05-04T01:58:10.417Z,7.86
2023-05-04T02:00:37.137Z,7.83
2023-05-04T02:03:03.800Z,7.75
2023-05-04T02:05:30.402Z,7.73
2023-05-04T02:07:56.984Z,7.71
2023-05-04T02:10:23.591Z,7.67
2023-05-04T02:12:50.556Z,7.62
2023-05-04T02:15:17.153Z,7.59
2023-05-04T02:17:43.849Z,7.58
2023-05-04T02:20:10.794Z,7.57
2023-05-04T02:22:37.281Z,7.51
2023-05-04T02:25:04.227Z,7.50
2023-05-04T02:27:30.896Z,7.50
2023-05-04T02:30:00.542Z,7.45
2023-05-04T02:32:27.209Z,7.42
2023-05-04T02:34:53.766Z,7.41
2023-05-04T02:37:20.262Z,7.39
2023-05-04T02:39:46.793Z,7.40
2023-05-04T02:42:13.916Z,7.39
2023-05-04T02:44:40.475Z,7.36
2023-05-04T02:47:06.976Z,7.34
2023-05-04T02:49:33.481Z,7.32
2023-05-04T02:52:00.211Z,7.34
2023-05-04T02:54:26.796Z,7.34
2023-05-04T02:56:53.407Z,7.31
2023-05-04T02:59:19.980Z,7.32
2023-05-04T03:01:46.709Z,7.27
2023-05-04T03:04:13.311Z,7.23
2023-05-04T03:06:39.832Z,7.22
2023-05-04T03:09:06.694Z,7.20
2023-05-04T03:11:33.224Z,7.19
2023-05-04T03:13:59.716Z,7.20
2023-05-04T03:16:26.222Z,7.22
2023-05-04T03:18:52.746Z,7.20
2023-05-04T03:21:19.397Z,7.19
2023-05-04T03:23:46.089Z,7.17
2023-05-04T03:26:12.593Z,7.14
2023-05-04T03:28:39.107Z,7.12
2023-05-04T03:31:05.651Z,7.10
2023-05-04T03:33:32.345Z,7.09
2023-05-04T03:35:58.865Z,7.04
2023-05-04T03:38:26.052Z,7.04
2023-05-04T03:40:52.765Z,7.02
2023-05-04T03:43:19.268Z,7.00
2023-05-04T03:45:46.131Z,6.99
2023-05-04T03:48:12.824Z,7.00
2023-05-04T03:50:39.504Z,6.99
2023-05-04T03:53:06.177Z,6.97
2023-05-04T03:55:32.890Z,6.95
2023-05-04T03:57:59.407Z,6.96
2023-05-04T04:00:26.225Z,6.92
2023-05-04T04:02:52.779Z,6.92
2023-05-04T04:05:19.484Z,6.89
2023-05-04T04:07:46.312Z,6.93
2023-05-04T04:10:12.823Z,6.90
2023-05-04T04:12:39.357Z,6.90
2023-05-04T04:15:06.460Z,6.92
2023-05-04T04:17:33.330Z,6.90
2023-05-04T04:19:59.817Z,6.89
2023-05-04T04:22:26.396Z,6.86
2023-05-04T04:24:52.953Z,6.90
2023-05-04T04:27:19.505Z,6.91
2023-05-04T04:29:46.156Z,6.88
2023-05-04T04:32:13.385Z,6.88
2023-05-04T04:34:40.729Z,6.88
2023-05-04T04:37:07.424Z,6.91
2023-05-04T04:39:34.037Z,6.92
2023-05-04T04:42:00.621Z,6.94
2023-05-04T04:44:27.121Z,6.94
2023-05-04T04:46:53.637Z,6.95
2023-05-04T04:49:20.148Z,6.99
2023-05-04T04:51:48.764Z,7.03
2023-05-04T04:54:15.238Z,7.03
2023-05-04T04:56:41.977Z,7.03
2023-05-04T04:59:08.516Z,7.09
2023-05-04T05:01:35.206Z,7.11
2023-05-04T05:04:01.758Z,7.13
2023-05-04T05:06:28.300Z,7.19
2023-05-04T05:08:54.892Z,7.23
2023-05-04T05:11:21.409Z,7.22
2023-05-04T05:13:47.911Z,7.25
2023-05-04T05:16:14.452Z,7.26
2023-05-04T05:18:41.095Z,7.31
2023-05-04T05:21:07.702Z,7.27
2023-05-04T05:23:35.650Z,7.29
2023-05-04T05:26:03.373Z,7.30
2023-05-04T05:28:30.410Z,7.30
2023-05-04T05:30:56.958Z,7.38
2023-05-04T05:33:23.921Z,7.39
2023-05-04T05:35:50.441Z,7.44
2023-05-04T05:38:18.405Z,7.47
2023-05-04T05:40:44.963Z,7.49
2023-05-04T05:43:11.740Z,7.50
2023-05-04T05:45:38.329Z,7.56
2023-05-04T05:48:05.726Z,7.59
2023-05-04T05:50:32.254Z,7.64
2023-05-04T05:52:58.733Z,7.65
2023-05-04T05:55:25.262Z,7.66
2023-05-04T05:57:52.155Z,7.69
2023-05-04T06:00:18.864Z,7.75
2023-05-04T06:02:45.682Z,7.87
2023-05-04T06:05:12.787Z,7.93
2023-05-04T06:07:39.361Z,7.98
2023-05-04T06:10:06.445Z,8.05
2023-05-04T06:12:33.366Z,8.10
2023-05-04T06:14:59.989Z,8.22
2023-05-04T06:17:26.542Z,8.32
2023-05-04T06:19:53.107Z,8.48
2023-05-04T06:22:19.662Z,8.58
2023-05-04T06:24:46.604Z,8.75
2023-05-04T06:27:13.323Z,8.87
2023-05-04T06:29:41.271Z,8.88
2023-05-04T06:32:09.905Z,9.07
2023-05-04T06:34:36.660Z,9.14
2023-05-04T06:37:03.455Z,9.19
2023-05-04T06:39:29.995Z,9.22
2023-05-04T06:41:57.137Z,9.15
2023-05-04T06:44:23.772Z,9.27
2023-05-04T06:46:50.428Z,9.39
2023-05-04T06:49:18.132Z,9.52
2023-05-04T06:51:44.797Z,9.58
2023-05-04T06:54:12.485Z,9.60
2023-05-04T06:56:39.774Z,9.79
2023-05-04T06:59:07.123Z,9.92
2023-05-04T07:01:33.713Z,10.03
2023-05-04T07:04:00.423Z,9.98
2023-05-04T07:06:27.317Z,10.00
2023-05-04T07:08:53.895Z,10.06
2023-05-04T07:11:20.583Z,10.16
2023-05-04T07:13:47.146Z,10.27
2023-05-04T07:16:13.719Z,10.51
2023-05-04T07:18:40.478Z,10.54
2023-05-04T07:21:26.934Z,10.71
2023-05-04T07:23:55.249Z,10.69
2023-05-04T07:26:22.674Z,10.85
2023-05-04T07:28:49.220Z,10.98
2023-05-04T07:31:16.011Z,11.09
2023-05-04T07:33:42.804Z,11.21
2023-05-04T07:36:09.633Z,11.26
2023-05-04T07:38:36.714Z,11.15
2023-05-04T07:41:03.253Z,11.11
2023-05-04T07:43:29.759Z,11.35
2023-05-04T07:45:56.610Z,11.54
2023-05-04T07:48:25.441Z,11.78
2023-05-04T07:50:53.728Z,11.94
2023-05-04T07:53:25.577Z,12.09
2023-05-04T07:55:54.260Z,11.88
2023-05-04T07:58:20.831Z,12.15
2023-05-04T08:00:47.430Z,12.31
2023-05-04T08:03:13.966Z,12.35
2023-05-04T08:05:40.673Z,12.40
2023-05-04T08:08:08.729Z,12.44
2023-05-04T08:10:39.047Z,12.58
2023-05-04T08:13:05.854Z,12.98
2023-05-04T08:15:32.467Z,13.20
2023-05-04T08:17:59.252Z,13.16
2023-05-04T08:20:25.913Z,12.88
2023-05-04T08:22:52.646Z,12.93
2023-05-04T08:25:19.295Z,13.13
2023-05-04T08:27:45.908Z,13.54
2023-05-04T08:30:12.809Z,13.89
2023-05-04T08:32:40.041Z,14.28
2023-05-04T08:35:06.886Z,14.72
2023-05-04T08:37:34.070Z,15.00
2023-05-04T08:40:00.651Z,15.43
2023-05-04T08:42:31.224Z,16.00
2023-05-04T08:44:58.785Z,16.16
2023-05-04T08:47:26.849Z,16.31
2023-05-04T08:49:54.094Z,16.81
2023-05-04T08:52:24.680Z,17.22
2023-05-04T08:54:56.172Z,17.34
2023-05-04T08:57:24.060Z,17.75
2023-05-04T08:59:55.358Z,17.85
2023-05-04T09:02:23.541Z,17.70
2023-05-04T09:04:51.628Z,18.14
2023-05-04T09:07:18.624Z,18.04
2023-05-04T09:09:45.465Z,18.36
2023-05-04T09:12:12.579Z,18.67
2023-05-04T09:14:41.350Z,18.48
2023-05-04T09:17:17.934Z,17.92
2023-05-04T09:19:44.691Z,17.80
2023-05-04T09:22:17.993Z,18.06
2023-05-04T09:24:46.377Z,18.47
2023-05-04T09:27:13.923Z,19.02
2023-05-04T09:29:42.440Z,19.15
2023-05-04T09:32:12.502Z,18.69
2023-05-04T09:34:49.530Z,19.21
2023-05-04T09:37:16.117Z,19.60
2023-05-04T09:39:53.711Z,19.79
2023-05-04T09:42:21.398Z,19.59
2023-05-04T09:45:07.959Z,19.52
2023-05-04T09:47:38.886Z,19.77
2023-05-04T09:50:20.737Z,20.03
2023-05-04T09:52:48.924Z,19.53
2023-05-04T09:55:17.789Z,20.52
2023-05-04T09:57:45.868Z,20.87
2023-05-04T10:00:14.193Z,21.03
2023-05-04T10:02:41.162Z,20.98
2023-05-04T10:05:09.504Z,20.77
2023-05-04T10:07:36.585Z,21.33
2023-05-04T10:10:03.655Z,21.36
2023-05-04T10:12:31.000Z,20.78
2023-05-04T10:14:57.912Z,21.27
2023-05-04T10:17:46.201Z,20.86
2023-05-04T10:20:28.506Z,21.16
2023-05-04T10:23:00.169Z,20.89
2023-05-04T10:25:41.901Z,21.62
2023-05-04T10:28:27.261Z,21.68
2023-05-04T10:31:00.314Z,22.06
2023-05-04T10:33:27.192Z,22.47
2023-05-04T10:35:54.453Z,22.11
2023-05-04T10:38:35.432Z,21.92
2023-05-04T10:41:13.663Z,22.81
2023-05-04T10:43:40.187Z,23.22
2023-05-04T10:46:17.308Z,22.58
2023-05-04T10:48:43.868Z,22.86
2023-05-04T10:51:21.210Z,22.44
2023-05-04T10:53:48.064Z,22.65
2023-05-04T10:56:25.181Z,22.32
2023-05-04T10:58:52.503Z,22.29
2023-05-04T11:01:19.762Z,22.60
2023-05-04T11:03:47.048Z,23.31
2023-05-04T11:06:24.090Z,23.33
2023-05-04T11:09:01.887Z,22.73
2023-05-04T11:11:28.772Z,22.38
2023-05-04T11:13:55.494Z,22.30
2023-05-04T11:16:27.039Z,21.74
2023-05-04T11:18:54.513Z,21.77
2023-05-04T11:21:25.706Z,22.47
2023-05-04T11:23:59.304Z,23.30
2023-05-04T11:26:26.299Z,23.07
2023-05-04T11:28:52.821Z,23.02
2023-05-04T11:31:20.952Z,23.18
2023-05-04T11:33:55.066Z,24.31
2023-05-04T11:36:24.540Z,24.59
2023-05-04T11:38:51.149Z,25.15
2023-05-04T11:41:17.677Z,25.48
2023-05-04T11:43:45.188Z,25.43
2023-05-04T11:46:12.812Z,25.58
2023-05-04T11:48:39.316Z,25.56
2023-05-04T11:51:07.013Z,25.06
2023-05-04T11:53:38.411Z,25.22
2023-05-04T11:56:06.556Z,25.36
2023-05-04T11:58:33.141Z,25.64
2023-05-04T12:00:59.926Z,25.43
2023-05-04T12:03:44.035Z,25.57
2023-05-04T12:06:15.163Z,25.14
2023-05-04T12:08:44.475Z,24.49
2023-05-04T12:11:25.364Z,25.17
2023-05-04T12:14:10.246Z,25.42
2023-05-04T12:16:38.213Z,25.76
2023-05-04T12:19:13.938Z,26.13
2023-05-04T12:21:51.868Z,26.34
2023-05-04T12:24:21.769Z,25.87
2023-05-04T12:26:48.489Z,25.90
2023-05-04T12:29:15.224Z,26.02
2023-05-04T12:31:41.789Z,25.39
2023-05-04T12:34:08.313Z,25.26
2023-05-04T12:36:35.086Z,23.91
2023-05-04T12:39:02.039Z,24.25
2023-05-04T12:41:28.569Z,24.50
2023-05-04T12:43:55.145Z,24.33
2023-05-04T12:46:22.712Z,25.08
2023-05-04T12:48:49.316Z,25.90
2023-05-04T12:51:15.890Z,25.92
2023-05-04T12:53:43.515Z,25.36
2023-05-04T12:56:10.051Z,25.82
2023-05-04T12:58:36.604Z,25.91
2023-05-04T13:01:04.364Z,25.92
2023-05-04T13:03:31.040Z,25.26
2023-05-04T13:05:58.066Z,25.44
2023-05-04T13:08:24.929Z,25.13
2023-05-04T13:10:52.181Z,24.94
2023-05-04T13:13:19.287Z,25.63
2023-05-04T13:15:50.115Z,25.63
2023-05-04T13:18:16.821Z,25.73
2023-05-04T13:20:43.437Z,25.37
2023-05-04T13:23:09.982Z,24.85
2023-05-04T13:25:36.536Z,25.39
2023-05-04T13:28:03.464Z,25.72
2023-05-04T13:30:30.010Z,25.65
2023-05-04T13:32:56.625Z,25.08
2023-05-04T13:35:23.906Z,25.19
2023-05-04T13:37:50.919Z,25.52
2023-05-04T13:40:17.528Z,25.22
2023-05-04T13:42:44.592Z,25.89
2023-05-04T13:45:11.641Z,26.53
2023-05-04T13:47:38.282Z,26.42
2023-05-04T13:50:05.264Z,27.20
2023-05-04T13:52:32.370Z,26.50
2023-05-04T13:54:59.438Z,26.13
2023-05-04T13:57:27.845Z,26.65
2023-05-04T14:00:06.419Z,26.72
2023-05-04T14:02:33.958Z,27.14
2023-05-04T14:05:01.419Z,27.18
2023-05-04T14:07:28.116Z,27.50
2023-05-04T14:09:55.988Z,27.27
2023-05-04T14:12:22.863Z,27.30
2023-05-04T14:14:50.754Z,27.12
2023-05-04T14:17:17.683Z,25.98
2023-05-04T14:19:44.796Z,26.02
2023-05-04T14:22:11.372Z,26.21
2023-05-04T14:24:37.937Z,27.24
2023-05-04T14:27:04.476Z,27.45
2023-05-04T14:29:32.310Z,27.90
2023-05-04T14:31:58.989Z,27.93
2023-05-04T14:34:25.663Z,27.80
2023-05-04T14:36:53.181Z,28.54
2023-05-04T14:39:20.029Z,27.92
2023-05-04T14:41:46.564Z,27.80
2023-05-04T14:44:13.249Z,27.87
2023-05-04T14:46:39.793Z,27.57
2023-05-04T14:49:07.335Z,27.15
2023-05-04T14:51:33.869Z,27.41
2023-05-04T14:54:00.713Z,27.37
2023-05-04T14:56:27.566Z,26.90
2023-05-04T14:58:54.160Z,26.64
2023-05-04T15:01:20.858Z,26.35
2023-05-04T15:03:48.164Z,26.38
2023-05-04T15:06:14.719Z,26.12
2023-05-04T15:08:41.357Z,25.66
2023-05-04T15:11:07.885Z,25.43
2023-05-04T15:13:34.451Z,25.36
2023-05-04T15:16:01.102Z,25.46
2023-05-04T15:18:27.760Z,25.39
2023-05-04T15:20:54.445Z,25.54
2023-05-04T15:23:21.251Z,25.01
2023-05-04T15:25:47.841Z,25.21
2023-05-04T15:28:14.516Z,25.48
2023-05-04T15:30:41.913Z,25.75
2023-05-04T15:33:08.747Z,26.06
2023-05-04T15:35:36.471Z,26.03
2023-05-04T15:38:03.215Z,26.22
2023-05-04T15:40:29.905Z,26.48
2023-05-04T15:42:56.471Z,26.48
2023-05-04T15:45:23.100Z,25.55
2023-05-04T15:47:49.733Z,25.56
2023-05-04T15:50:16.322Z,25.58
2023-05-04T15:52:43.035Z,25.48
2023-05-04T15:55:24.336Z,26.36
2023-05-04T15:57:52.613Z,26.75
2023-05-04T16:00:19.708Z,26.32
2023-05-04T16:02:46.464Z,26.37
2023-05-04T16:05:13.157Z,24.99
2023-05-04T16:07:39.715Z,24.56
2023-05-04T16:10:07.113Z,24.59
2023-05-04T16:12:33.804Z,24.61
2023-05-04T16:15:00.489Z,24.87
2023-05-04T16:17:29.198Z,26.06
2023-05-04T16:19:56.120Z,26.08
2023-05-04T16:22:22.775Z,26.11
2023-05-04T16:24:49.295Z,26.57
2023-05-04T16:27:16.369Z,27.05
2023-05-04T16:29:42.956Z,27.58
2023-05-04T16:32:09.517Z,27.92
2023-05-04T16:34:36.140Z,27.89
2023-05-04T16:37:02.748Z,27.63
2023-05-04T16:39:31.461Z,27.50
2023-05-04T16:41:58.516Z,27.28
2023-05-04T16:44:25.450Z,27.49
2023-05-04T16:46:54.047Z,27.99
2023-05-04T16:49:23.434Z,27.56
2023-05-04T16:51:50.082Z,27.46
2023-05-04T16:54:16.807Z,28.05
2023-05-04T16:56:43.407Z,28.13
2023-05-04T16:59:09.972Z,28.05
2023-05-04T17:01:36.594Z,28.52
2023-05-04T17:04:03.193Z,27.85
2023-05-04T17:06:30.048Z,27.03
2023-05-04T17:08:56.657Z,26.79
2023-05-04T17:11:23.985Z,27.04
2023-05-04T17:13:51.087Z,26.73
2023-05-04T17:16:17.809Z,26.79
2023-05-04T17:18:45.790Z,26.29
2023-05-04T17:21:12.323Z,26.31
2023-05-04T17:23:38.837Z,25.98
2023-05-04T17:26:06.316Z,24.80
2023-05-04T17:28:32.866Z,24.61
2023-05-04T17:30:59.516Z,25.05
2023-05-04T17:33:26.158Z,24.93
2023-05-04T17:35:52.688Z,25.05
2023-05-04T17:38:19.240Z,25.46
2023-05-04T17:40:45.787Z,25.49
2023-05-04T17:43:12.326Z,25.67
2023-05-04T17:45:38.947Z,25.61
2023-05-04T17:48:05.971Z,25.77
2023-05-04T17:50:32.581Z,25.13
2023-05-04T17:52:59.085Z,25.08
2023-05-04T17:55:25.714Z,24.87
2023-05-04T17:57:54.121Z,24.69
2023-05-04T18:00:21.135Z,23.97
2023-05-04T18:02:47.815Z,23.78
2023-05-04T18:05:14.419Z,23.53
2023-05-04T18:07:41.174Z,23.29
2023-05-04T18:10:08.108Z,23.00
2023-05-04T18:12:35.671Z,22.84
2023-05-04T18:15:08.183Z,22.77
2023-05-04T18:17:35.922Z,22.41
2023-05-04T18:20:02.536Z,22.46
2023-05-04T18:22:29.140Z,22.48
2023-05-04T18:24:55.699Z,22.57
2023-05-04T18:27:22.257Z,22.37
2023-05-04T18:29:48.820Z,22.35
2023-05-04T18:32:15.381Z,22.30
2023-05-04T18:34:42.090Z,22.19
2023-05-04T18:37:08.643Z,22.12
2023-05-04T18:39:35.326Z,22.10
2023-05-04T18:42:01.962Z,22.02
2023-05-04T18:44:28.482Z,21.68
2023-05-04T18:46:55.112Z,21.71
2023-05-04T18:49:21.639Z,21.66
2023-05-04T18:51:48.226Z,21.59
2023-05-04T18:54:16.146Z,21.40
2023-05-04T18:56:42.886Z,21.31
2023-05-04T18:59:10.718Z,21.18
2023-05-04T19:01:37.816Z,21.20
2023-05-04T19:04:04.965Z,21.16
2023-05-04T19:06:32.542Z,21.04
2023-05-04T19:08:59.532Z,21.03
2023-05-04T19:11:26.582Z,21.01
2023-05-04T19:13:53.350Z,21.00
2023-05-04T19:16:20.038Z,20.94
2023-05-04T19:18:46.749Z,20.93
2023-05-04T19:21:13.316Z,20.83
2023-05-04T19:23:40.124Z,20.78
2023-05-04T19:26:06.675Z,20.77
2023-05-04T19:28:33.197Z,20.73
2023-05-04T19:30:59.813Z,20.64
2023-05-04T19:33:36.368Z,20.66
2023-05-04T19:36:11.515Z,20.62
2023-05-04T19:38:38.064Z,20.63
2023-05-04T19:41:04.696Z,20.48
2023-05-04T19:43:32.840Z,20.46
2023-05-04T19:45:59.357Z,20.40
2023-05-04T19:48:25.912Z,20.37
2023-05-04T19:50:52.442Z,20.38
2023-05-04T19:53:18.939Z,20.44
2023-05-04T19:55:45.511Z,20.40
2023-05-04T19:58:12.066Z,20.37
2023-05-04T20:00:38.689Z,20.34
2023-05-04T20:03:05.417Z,20.17
2023-05-04T20:05:31.958Z,20.12
2023-05-04T20:07:58.488Z,20.05
2023-05-04T20:10:25.411Z,19.94
2023-05-04T20:12:51.995Z,19.71
2023-05-04T20:15:18.577Z,19.67
2023-05-04T20:17:45.086Z,19.58
2023-05-04T20:20:12.215Z,19.53
2023-05-04T20:22:38.701Z,19.33
2023-05-04T20:25:05.543Z,19.24
2023-05-04T20:27:32.047Z,19.23
2023-05-04T20:29:58.925Z,19.18
2023-05-04T20:32:25.630Z,19.21
2023-05-04T20:34:52.394Z,19.17
2023-05-04T20:37:18.977Z,19.12
2023-05-04T20:39:45.512Z,19.11
2023-05-04T20:42:12.690Z,19.04
2023-05-04T20:44:39.180Z,18.99
2023-05-04T20:47:05.782Z,19.00
2023-05-04T20:49:32.474Z,18.95
2023-05-04T20:51:59.009Z,19.00
2023-05-04T20:54:25.615Z,19.07
2023-05-04T20:56:52.191Z,19.03
2023-05-04T20:59:18.793Z,19.11
2023-05-04T21:01:45.328Z,19.08
2023-05-04T21:04:11.898Z,19.03
2023-05-04T21:06:38.403Z,18.99
2023-05-04T21:09:04.977Z,18.97
2023-05-04T21:11:31.483Z,19.03
2023-05-04T21:13:58.092Z,18.87
2023-05-04T21:16:24.713Z,18.92
2023-05-04T21:18:51.352Z,19.00
2023-05-04T21:21:17.939Z,19.03
2023-05-04T21:23:44.486Z,19.01
2023-05-04T21:26:11.567Z,18.97
2023-05-04T21:28:38.070Z,19.00
2023-05-04T21:31:08.455Z,19.02
2023-05-04T21:33:36.115Z,18.96
2023-05-04T21:36:15.096Z,18.95
2023-05-04T21:38:42.140Z,18.94
2023-05-04T21:41:15.274Z,18.86
2023-05-04T21:43:42.660Z,18.73
2023-05-04T21:46:09.286Z,18.56
2023-05-04T21:48:35.908Z,18.44
2023-05-04T21:51:02.645Z,18.37
2023-05-04T21:53:33.295Z,18.35
2023-05-04T21:56:07.701Z,18.21
2023-05-04T21:58:34.533Z,18.26
2023-05-04T22:01:01.152Z,18.36
2023-05-04T22:03:28.695Z,18.33
2023-05-04T22:05:57.687Z,18.27
2023-05-04T22:08:25.053Z,18.25
2023-05-04T22:10:52.654Z,18.28
2023-05-04T22:13:19.397Z,18.29
2023-05-04T22:15:49.932Z,18.25
2023-05-04T22:18:17.227Z,18.24
2023-05-04T22:20:43.754Z,18.19
2023-05-04T22:23:10.573Z,18.15
2023-05-04T22:25:37.096Z,18.12
2023-05-04T22:28:03.960Z,18.13
2023-05-04T22:30:30.515Z,18.07
2023-05-04T22:32:57.222Z,18.02
2023-05-04T22:35:23.971Z,18.03
2023-05-04T22:37:50.786Z,17.97
2023-05-04T22:40:17.473Z,17.97
2023-05-04T22:42:46.936Z,17.89
2023-05-04T22:45:14.445Z,17.88
2023-05-04T22:47:41.905Z,17.90
2023-05-04T22:50:09.532Z,17.86
2023-05-04T22:52:36.710Z,17.84
2023-05-04T22:55:04.027Z,17.81
2023-05-04T22:57:30.599Z,17.64
2023-05-04T22:59:57.139Z,17.47
2023-05-04T23:02:23.875Z,17.55
2023-05-04T23:04:50.600Z,17.44
2023-05-04T23:07:17.096Z,17.31
2023-05-04T23:09:45.197Z,17.30
2023-05-04T23:12:12.802Z,17.17
2023-05-04T23:14:39.370Z,17.14
2023-05-04T23:17:05.932Z,17.01
2023-05-04T23:19:32.674Z,16.78
2023-05-04T23:21:59.453Z,16.60
2023-05-04T23:24:26.296Z,16.49
2023-05-04T23:26:52.889Z,16.26
2023-05-04T23:29:19.813Z,15.88
2023-05-04T23:31:46.376Z,15.61
2023-05-04T23:34:13.527Z,15.29
2023-05-04T23:36:40.224Z,15.23
2023-05-04T23:39:06.920Z,15.12
2023-05-04T23:41:33.558Z,15.08
2023-05-04T23:44:00.408Z,15.01
2023-05-04T23:46:26.989Z,14.97
2023-05-04T23:48:53.525Z,15.00
2023-05-04T23:51:21.182Z,15.03
2023-05-04T23:53:47.734Z,15.05
2023-05-04T23:56:14.530Z,15.05
2023-05-04T23:58:41.930Z,15.07
